Time;durP1;ratioP1;P1;durP2;ratioP2;P2;SDS_P1;SDS_P2;PMS_P1;PMS_P2;Temp;Humidity;BMP_temperature;BMP_pressure;BME280_temperature;BME280_humidity;BME280_pressure;Samples;Min_cycle;Max_cycle;Signal;HPM_P1;HPM_P2
2023/02/06 00:01:07;;;;;;;1.80;0.80;;;;;;;;;;5097517;28;20481;-57
2023/02/06 00:03:33;;;;;;;4.00;1.10;;;;;;;;;;5098126;28;20073;-56
2023/02/06 00:05:59;;;;;;;2.97;1.27;;;;;;;;;;5096486;28;20016;-56
2023/02/06 00:08:25;;;;;;;3.20;0.70;;;;;;;;;;5095682;28;20512;-63
2023/02/06 00:10:52;;;;;;;5.60;1.20;;;;;;;;;;5095840;28;20024;-57
2023/02/06 00:13:17;;;;;;;3.40;1.10;;;;;;;;;;5097210;28;20023;-57
2023/02/06 00:15:44;;;;;;;3.77;1.13;;;;;;;;;;5096868;28;20358;-56
2023/02/06 00:18:10;;;;;;;6.63;0.87;;;;;;;;;;5095467;28;20020;-54
2023/02/06 00:20:35;;;;;;;2.07;0.87;;;;;;;;;;5096824;28;20062;-56
2023/02/06 00:23:01;;;;;;;3.73;0.90;;;;;;;;;;5094974;28;20025;-56
2023/02/06 00:25:27;;;;;;;3.50;1.20;;;;;;;;;;5095524;28;20085;-61
2023/02/06 00:27:52;;;;;;;3.10;0.83;;;;;;;;;;5096548;28;20464;-59
2023/02/06 00:30:18;;;;;;;3.07;1.00;;;;;;;;;;5094037;28;20043;-56
2023/02/06 00:32:43;;;;;;;3.27;0.97;;;;;;;;;;5094007;28;20027;-55
2023/02/06 00:35:09;;;;;;;1.77;0.87;;;;;;;;;;5093776;28;20023;-55
2023/02/06 00:37:34;;;;;;;2.33;0.90;;;;;;;;;;5095078;28;20377;-57
2023/02/06 00:39:59;;;;;;;7.33;1.10;;;;;;;;;;5093878;28;20017;-55
2023/02/06 00:42:25;;;;;;;2.50;0.80;;;;;;;;;;5095363;28;20419;-59
2023/02/06 00:44:50;;;;;;;3.20;1.03;;;;;;;;;;5094365;28;20028;-55
2023/02/06 00:47:16;;;;;;;4.50;0.80;;;;;;;;;;5093378;28;20027;-55
2023/02/06 00:49:41;;;;;;;7.17;1.07;;;;;;;;;;5093626;28;20017;-55
2023/02/06 00:52:06;;;;;;;7.07;1.97;;;;;;;;;;5093250;28;20035;-55
2023/02/06 00:54:32;;;;;;;2.40;0.73;;;;;;;;;;5094517;28;20090;-55
2023/02/06 00:56:57;;;;;;;4.33;2.20;;;;;;;;;;5094478;28;20456;-55
2023/02/06 00:59:23;;;;;;;6.63;0.67;;;;;;;;;;5094407;28;20488;-55
2023/02/06 01:01:48;;;;;;;5.80;1.10;;;;;;;;;;5093163;28;20503;-56
2023/02/06 01:04:14;;;;;;;9.03;0.90;;;;;;;;;;5094495;28;20024;-56
2023/02/06 01:06:39;;;;;;;3.37;0.80;;;;;;;;;;5096241;28;20024;-57
2023/02/06 01:09:04;;;;;;;6.60;0.87;;;;;;;;;;5097657;28;20012;-59
2023/02/06 01:11:30;;;;;;;3.70;1.07;;;;;;;;;;5096486;28;20016;-58
2023/02/06 01:13:55;;;;;;;3.60;1.30;;;;;;;;;;5093977;28;20089;-56
2023/02/06 01:16:22;;;;;;;3.10;0.70;;;;;;;;;;5094214;28;20019;-55
2023/02/06 01:18:48;;;;;;;2.57;0.80;;;;;;;;;;5094451;28;20072;-55
2023/02/06 01:21:15;;;;;;;3.60;0.83;;;;;;;;;;5092737;28;20020;-55
2023/02/06 01:23:40;;;;;;;6.40;0.90;;;;;;;;;;5093804;28;20024;-54
2023/02/06 01:26:08;;;;;;;2.77;0.80;;;;;;;;;;5094110;28;20023;-63
2023/02/06 01:28:35;;;;;;;3.03;0.47;;;;;;;;;;5094036;28;20035;-59
2023/02/06 01:31:00;;;;;;;6.93;2.03;;;;;;;;;;5093810;28;20020;-55
2023/02/06 01:33:28;;;;;;;2.53;0.47;;;;;;;;;;5092797;28;20027;-57
2023/02/06 01:35:55;;;;;;;6.00;1.50;;;;;;;;;;5093964;28;20020;-56
2023/02/06 01:38:20;;;;;;;4.47;0.70;;;;;;;;;;5094524;28;20016;-56
2023/02/06 01:40:45;;;;;;;4.20;0.77;;;;;;;;;;5092731;28;20023;-56
2023/02/06 01:43:16;;;;;;;3.03;0.53;;;;;;;;;;5092251;28;20429;-56
2023/02/06 01:45:43;;;;;;;1.73;0.50;;;;;;;;;;5092631;28;20488;-57
2023/02/06 01:48:10;;;;;;;5.67;0.80;;;;;;;;;;5092911;28;20016;-56
2023/02/06 01:50:37;;;;;;;5.90;0.87;;;;;;;;;;5094053;28;20384;-56
2023/02/06 01:53:03;;;;;;;2.83;0.70;;;;;;;;;;5095521;28;20095;-55
2023/02/06 01:55:29;;;;;;;7.03;0.70;;;;;;;;;;5094400;28;20136;-55
2023/02/06 01:57:54;;;;;;;2.40;0.70;;;;;;;;;;5095092;28;20535;-56
2023/02/06 02:00:20;;;;;;;3.50;0.70;;;;;;;;;;5095275;28;20020;-56
2023/02/06 02:02:47;;;;;;;4.07;1.33;;;;;;;;;;5093630;28;20020;-54
2023/02/06 02:05:13;;;;;;;4.80;0.80;;;;;;;;;;5091704;28;20056;-56
2023/02/06 02:07:45;;;;;;;4.97;0.87;;;;;;;;;;5093291;28;20513;-57
2023/02/06 02:10:11;;;;;;;7.63;0.77;;;;;;;;;;5093245;28;20019;-56
2023/02/06 02:12:36;;;;;;;3.60;0.70;;;;;;;;;;5091727;28;20032;-57
2023/02/06 02:15:02;;;;;;;7.37;0.80;;;;;;;;;;5091856;28;20022;-58
2023/02/06 02:17:46;;;;;;;4.23;1.00;;;;;;;;;;5097882;28;20095;-59
2023/02/06 02:20:23;;;;;;;4.67;0.57;;;;;;;;;;5095560;28;20154;-56
2023/02/06 02:23:07;;;;;;;9.67;1.50;;;;;;;;;;5095878;28;20024;-63
2023/02/06 02:25:47;;;;;;;5.57;0.80;;;;;;;;;;5095752;28;20024;-62
2023/02/06 02:28:40;;;;;;;5.17;0.80;;;;;;;;;;5094944;28;20024;-57
2023/02/06 02:31:21;;;;;;;2.77;0.60;;;;;;;;;;5095540;28;20031;-58
2023/02/06 02:34:05;;;;;;;4.90;0.73;;;;;;;;;;5096083;28;20039;-56
2023/02/06 02:36:38;;;;;;;0.70;0.40;;;;;;;;;;5095404;28;20059;-56
2023/02/06 02:39:19;;;;;;;3.40;0.80;;;;;;;;;;5094462;28;20024;-55
2023/02/06 02:41:52;;;;;;;3.40;0.87;;;;;;;;;;5094481;28;20078;-56
2023/02/06 02:44:37;;;;;;;5.70;0.70;;;;;;;;;;5092985;28;20037;-57
2023/02/06 02:47:03;;;;;;;3.20;0.50;;;;;;;;;;5095315;28;20024;-54
2023/02/06 02:49:32;;;;;;;3.97;0.70;;;;;;;;;;5094955;28;20020;-55
2023/02/06 02:51:58;;;;;;;4.10;0.80;;;;;;;;;;5093078;28;20016;-55
2023/02/06 02:54:23;;;;;;;6.03;1.10;;;;;;;;;;5092162;28;20024;-57
2023/02/06 02:56:49;;;;;;;4.23;0.90;;;;;;;;;;5094072;28;20020;-58
2023/02/06 02:59:22;;;;;;;8.90;0.90;;;;;;;;;;5094527;28;20031;-56
2023/02/06 03:02:08;;;;;;;5.40;0.83;;;;;;;;;;5093523;28;20016;-56
2023/02/06 03:04:34;;;;;;;;;;;;;;;;;;5091478;28;20044;-57
2023/02/06 03:07:18;;;;;;;6.37;0.60;;;;;;;;;;5091128;28;19927;-57
2023/02/06 03:10:04;;;;;;;4.23;0.53;;;;;;;;;;5090768;28;20118;-55
2023/02/06 03:12:43;;;;;;;5.03;0.70;;;;;;;;;;5091958;28;20468;-56
2023/02/06 03:15:15;;;;;;;4.03;0.90;;;;;;;;;;5090694;28;20016;-55
2023/02/06 03:17:42;;;;;;;6.30;1.03;;;;;;;;;;5091106;28;20481;-55
2023/02/06 03:20:09;;;;;;;2.07;0.53;;;;;;;;;;5093138;28;20020;-55
2023/02/06 03:22:35;;;;;;;5.37;0.70;;;;;;;;;;5093331;28;20473;-56
2023/02/06 03:25:03;;;;;;;5.03;0.73;;;;;;;;;;5094806;28;20035;-56
2023/02/06 03:27:30;;;;;;;2.13;0.70;;;;;;;;;;5095030;28;20468;-64
2023/02/06 03:29:57;;;;;;;8.30;0.90;;;;;;;;;;5097879;28;20016;-54
2023/02/06 03:32:28;;;;;;;5.60;1.17;;;;;;;;;;5098919;28;20061;-59
2023/02/06 03:35:11;;;;;;;14.10;1.63;;;;;;;;;;5097453;28;20016;-57
2023/02/06 03:37:37;;;;;;;10.13;1.87;;;;;;;;;;5096382;28;20024;-54
2023/02/06 03:40:03;;;;;;;8.43;0.87;;;;;;;;;;5094933;28;20111;-56
2023/02/06 03:42:29;;;;;;;7.83;0.90;;;;;;;;;;5096009;28;20027;-60
2023/02/06 03:45:01;;;;;;;1.97;0.50;;;;;;;;;;5095935;28;20085;-55
2023/02/06 03:47:28;;;;;;;4.70;1.53;;;;;;;;;;5094816;28;20049;-55
2023/02/06 03:49:55;;;;;;;5.53;1.03;;;;;;;;;;5096089;28;20016;-55
2023/02/06 03:52:23;;;;;;;4.83;0.70;;;;;;;;;;5094642;28;20012;-54
2023/02/06 03:54:53;;;;;;;10.97;1.87;;;;;;;;;;5096125;28;20028;-55
2023/02/06 03:57:20;;;;;;;13.67;1.23;;;;;;;;;;5095661;28;20027;-55
2023/02/06 03:59:46;;;;;;;3.67;0.70;;;;;;;;;;5096139;28;20028;-56
2023/02/06 04:02:12;;;;;;;6.97;1.00;;;;;;;;;;5095487;28;20016;-56
2023/02/06 04:04:39;;;;;;;7.80;1.03;;;;;;;;;;5094198;28;20028;-56
2023/02/06 04:07:11;;;;;;;8.93;0.77;;;;;;;;;;5095290;28;20102;-55
2023/02/06 04:09:37;;;;;;;13.97;1.10;;;;;;;;;;5094847;28;20038;-58
2023/02/06 04:12:03;;;;;;;5.20;0.93;;;;;;;;;;5095252;28;20042;-57
2023/02/06 04:14:28;;;;;;;7.87;0.90;;;;;;;;;;5096339;28;20551;-59
2023/02/06 04:16:54;;;;;;;6.07;0.60;;;;;;;;;;5098345;28;20020;-57
2023/02/06 04:19:19;;;;;;;9.20;0.87;;;;;;;;;;5097124;28;20020;-55
2023/02/06 04:21:45;;;;;;;10.00;1.43;;;;;;;;;;5098668;28;20032;-64
2023/02/06 04:24:10;;;;;;;4.40;0.90;;;;;;;;;;5096834;28;20028;-56
2023/02/06 04:26:35;;;;;;;9.13;1.50;;;;;;;;;;5097196;28;20099;-56
2023/02/06 04:29:01;;;;;;;5.63;1.03;;;;;;;;;;5096761;28;20020;-56
2023/02/06 04:31:26;;;;;;;3.50;0.60;;;;;;;;;;5095353;28;20137;-58
2023/02/06 04:33:52;;;;;;;7.30;0.87;;;;;;;;;;5093906;28;20028;-66
2023/02/06 04:36:18;;;;;;;5.30;0.90;;;;;;;;;;5094284;28;20024;-56
2023/02/06 04:38:43;;;;;;;6.47;1.00;;;;;;;;;;5095244;28;20069;-55
2023/02/06 04:41:09;;;;;;;8.13;0.70;;;;;;;;;;5093892;28;20471;-56
2023/02/06 04:43:35;;;;;;;7.33;1.17;;;;;;;;;;5096928;28;20042;-57
2023/02/06 04:46:01;;;;;;;1.87;0.60;;;;;;;;;;5098840;28;20024;-57
2023/02/06 04:48:27;;;;;;;7.10;0.90;;;;;;;;;;5095259;28;20024;-56
2023/02/06 04:50:54;;;;;;;2.63;0.80;;;;;;;;;;5094959;28;20016;-56
2023/02/06 04:53:19;;;;;;;7.10;1.20;;;;;;;;;;5093717;28;20051;-55
2023/02/06 04:55:45;;;;;;;10.77;0.80;;;;;;;;;;5094947;28;20066;-55
2023/02/06 04:58:10;;;;;;;7.70;1.00;;;;;;;;;;5093876;28;20016;-55
2023/02/06 05:00:36;;;;;;;9.57;1.40;;;;;;;;;;5095854;28;20023;-55
2023/02/06 05:03:01;;;;;;;6.70;2.10;;;;;;;;;;5095526;28;20028;-55
2023/02/06 05:05:27;;;;;;;9.30;1.20;;;;;;;;;;5094558;28;20028;-55
2023/02/06 05:07:52;;;;;;;9.97;1.33;;;;;;;;;;5094264;28;20413;-56
2023/02/06 05:10:18;;;;;;;6.23;0.73;;;;;;;;;;5094909;28;20023;-56
2023/02/06 05:12:43;;;;;;;5.17;0.60;;;;;;;;;;5095097;28;20052;-56
2023/02/06 05:15:09;;;;;;;7.17;0.90;;;;;;;;;;5094810;28;20077;-55
2023/02/06 05:17:34;;;;;;;11.23;3.70;;;;;;;;;;5096019;28;20016;-57
2023/02/06 05:20:00;;;;;;;5.73;1.30;;;;;;;;;;5095019;28;20103;-56
2023/02/06 05:22:25;;;;;;;6.73;1.33;;;;;;;;;;5094703;28;20031;-58
2023/02/06 05:24:52;;;;;;;6.37;1.30;;;;;;;;;;5095361;28;20035;-69
2023/02/06 05:27:17;;;;;;;4.43;0.60;;;;;;;;;;5097477;28;20497;-54
2023/02/06 05:29:43;;;;;;;4.93;0.77;;;;;;;;;;5095794;28;20046;-55
2023/02/06 05:32:08;;;;;;;5.43;0.90;;;;;;;;;;5094478;28;20445;-56
2023/02/06 05:34:34;;;;;;;3.90;0.80;;;;;;;;;;5094096;28;20012;-56
2023/02/06 05:36:59;;;;;;;4.40;1.10;;;;;;;;;;5092700;28;20469;-56
2023/02/06 05:39:25;;;;;;;4.97;0.93;;;;;;;;;;5096791;28;20020;-61
2023/02/06 05:41:50;;;;;;;5.63;0.80;;;;;;;;;;5096842;28;20460;-55
2023/02/06 05:44:16;;;;;;;10.53;1.07;;;;;;;;;;5093197;28;20032;-57
2023/02/06 05:46:41;;;;;;;6.30;0.90;;;;;;;;;;5091570;28;20563;-57
2023/02/06 05:49:07;;;;;;;8.83;1.43;;;;;;;;;;5093480;28;20058;-54
2023/02/06 05:51:33;;;;;;;6.57;0.90;;;;;;;;;;5093619;28;20020;-56
2023/02/06 05:53:59;;;;;;;9.33;1.00;;;;;;;;;;5092078;28;20165;-55
2023/02/06 05:56:24;;;;;;;8.30;1.27;;;;;;;;;;5092516;28;20060;-58
2023/02/06 05:58:50;;;;;;;12.23;2.30;;;;;;;;;;5093135;28;20012;-56
2023/02/06 06:01:15;;;;;;;4.37;0.80;;;;;;;;;;5092078;28;20226;-57
2023/02/06 06:03:41;;;;;;;10.00;2.63;;;;;;;;;;5093257;28;20054;-56
2023/02/06 06:06:06;;;;;;;5.50;1.40;;;;;;;;;;5093988;28;20465;-57
2023/02/06 06:08:32;;;;;;;5.80;1.10;;;;;;;;;;5096324;28;20044;-58
2023/02/06 06:10:58;;;;;;;4.37;0.93;;;;;;;;;;5094432;28;20189;-55
2023/02/06 06:13:23;;;;;;;7.80;0.83;;;;;;;;;;5093541;28;20107;-58
2023/02/06 06:15:50;;;;;;;7.53;1.60;;;;;;;;;;5093694;28;20073;-57
2023/02/06 06:18:15;;;;;;;7.80;1.17;;;;;;;;;;5093305;28;20423;-57
2023/02/06 06:20:41;;;;;;;4.87;0.90;;;;;;;;;;5093393;28;20016;-59
2023/02/06 06:23:06;;;;;;;6.43;1.10;;;;;;;;;;5091418;28;20062;-59
2023/02/06 06:25:33;;;;;;;10.37;1.20;;;;;;;;;;5092005;28;20039;-58
2023/02/06 06:27:59;;;;;;;15.47;1.43;;;;;;;;;;5091664;28;20384;-57
2023/02/06 06:30:24;;;;;;;7.13;1.00;;;;;;;;;;5091895;28;20028;-57
2023/02/06 06:32:50;;;;;;;3.23;0.57;;;;;;;;;;5092541;28;20012;-57
2023/02/06 06:35:16;;;;;;;7.97;1.00;;;;;;;;;;5092769;28;20024;-57
2023/02/06 06:37:41;;;;;;;5.20;1.20;;;;;;;;;;5092903;28;20027;-57
2023/02/06 06:40:07;;;;;;;5.67;1.37;;;;;;;;;;5091552;28;20020;-56
2023/02/06 06:42:32;;;;;;;6.10;2.27;;;;;;;;;;5092881;28;20111;-58
2023/02/06 06:44:58;;;;;;;6.27;1.50;;;;;;;;;;5094501;28;20036;-58
2023/02/06 06:47:23;;;;;;;7.60;1.40;;;;;;;;;;5095612;28;20058;-57
2023/02/06 06:49:49;;;;;;;5.83;1.90;;;;;;;;;;5091510;28;20024;-60
2023/02/06 06:52:14;;;;;;;11.53;2.23;;;;;;;;;;5091370;28;20020;-57
2023/02/06 06:54:40;;;;;;;12.57;1.40;;;;;;;;;;5091339;28;20086;-57
2023/02/06 06:57:05;;;;;;;6.13;1.10;;;;;;;;;;5091665;28;20048;-58
2023/02/06 06:59:31;;;;;;;7.00;1.17;;;;;;;;;;5093755;28;20533;-60
2023/02/06 07:01:56;;;;;;;7.63;1.00;;;;;;;;;;5096051;28;20031;-57
2023/02/06 07:04:22;;;;;;;9.60;1.60;;;;;;;;;;5095126;28;20028;-58
2023/02/06 07:06:47;;;;;;;6.13;1.30;;;;;;;;;;5096370;28;20070;-59
2023/02/06 07:09:13;;;;;;;12.17;1.27;;;;;;;;;;5095391;28;20400;-58
2023/02/06 07:11:38;;;;;;;15.23;1.60;;;;;;;;;;5095862;28;20457;-56
2023/02/06 07:14:04;;;;;;;10.40;1.20;;;;;;;;;;5095426;28;20091;-57
2023/02/06 07:16:29;;;;;;;8.20;1.33;;;;;;;;;;5093770;28;20028;-57
2023/02/06 07:18:54;;;;;;;9.40;1.40;;;;;;;;;;5096067;28;20048;-55
2023/02/06 07:21:23;;;;;;;12.30;1.53;;;;;;;;;;5095573;28;20026;-57
2023/02/06 07:23:49;;;;;;;10.80;1.83;;;;;;;;;;5093624;28;20504;-58
2023/02/06 07:26:14;;;;;;;8.00;1.30;;;;;;;;;;5095831;28;20023;-60
2023/02/06 07:28:41;;;;;;;6.10;2.07;;;;;;;;;;5096121;28;20019;-56
2023/02/06 07:31:07;;;;;;;8.63;2.00;;;;;;;;;;5094285;28;20016;-58
2023/02/06 07:33:33;;;;;;;7.77;1.50;;;;;;;;;;5095537;28;20039;-57
2023/02/06 07:35:58;;;;;;;8.27;1.23;;;;;;;;;;5095406;28;20516;-58
2023/02/06 07:38:24;;;;;;;10.80;1.47;;;;;;;;;;5093882;28;20016;-57
2023/02/06 07:40:49;;;;;;;10.07;2.10;;;;;;;;;;5096086;28;20017;-57
2023/02/06 07:43:15;;;;;;;11.33;2.17;;;;;;;;;;5095089;28;20020;-62
2023/02/06 07:45:41;;;;;;;10.67;1.80;;;;;;;;;;5095566;28;20078;-58
2023/02/06 07:48:06;;;;;;;4.87;1.37;;;;;;;;;;5095939;28;20035;-57
2023/02/06 07:50:32;;;;;;;8.60;1.70;;;;;;;;;;5095263;28;20016;-62
2023/02/06 07:52:58;;;;;;;16.07;3.00;;;;;;;;;;5095121;28;20061;-57
2023/02/06 07:55:23;;;;;;;14.13;2.07;;;;;;;;;;5093854;28;20465;-56
2023/02/06 07:57:48;;;;;;;15.93;2.03;;;;;;;;;;5094230;28;20024;-57
2023/02/06 08:00:15;;;;;;;14.20;1.80;;;;;;;;;;5095389;28;20479;-57
2023/02/06 08:02:41;;;;;;;11.10;2.57;;;;;;;;;;5094014;28;20531;-56
2023/02/06 08:05:07;;;;;;;9.30;1.47;;;;;;;;;;5093740;28;20123;-58
2023/02/06 08:07:33;;;;;;;10.13;2.13;;;;;;;;;;5096173;28;20123;-58
2023/02/06 08:09:58;;;;;;;18.13;4.03;;;;;;;;;;5093719;28;20118;-57
2023/02/06 08:12:24;;;;;;;12.53;1.50;;;;;;;;;;5094259;28;20013;-57
2023/02/06 08:14:49;;;;;;;11.07;1.50;;;;;;;;;;5095109;28;20029;-62
2023/02/06 08:17:15;;;;;;;8.60;1.77;;;;;;;;;;5095312;28;20012;-57
2023/02/06 08:19:40;;;;;;;16.00;2.17;;;;;;;;;;5094414;28;20028;-56
2023/02/06 08:22:06;;;;;;;14.47;2.50;;;;;;;;;;5095108;28;20484;-57
2023/02/06 08:24:32;;;;;;;8.27;1.87;;;;;;;;;;5092948;28;20070;-58
2023/02/06 08:26:58;;;;;;;8.70;1.67;;;;;;;;;;5093658;28;20465;-60
2023/02/06 08:29:24;;;;;;;7.43;2.50;;;;;;;;;;5095692;28;20079;-61
2023/02/06 08:31:50;;;;;;;15.80;2.43;;;;;;;;;;5096188;28;20056;-58
2023/02/06 08:34:15;;;;;;;16.43;2.93;;;;;;;;;;5093860;28;20012;-56
2023/02/06 08:36:41;;;;;;;10.13;2.03;;;;;;;;;;5094797;28;20047;-57
2023/02/06 08:39:06;;;;;;;15.40;2.43;;;;;;;;;;5094692;28;20024;-58
2023/02/06 08:41:36;;;;;;;7.13;2.00;;;;;;;;;;5095085;28;20099;-57
2023/02/06 08:44:02;;;;;;;15.80;3.10;;;;;;;;;;5097031;28;20062;-58
2023/02/06 08:46:29;;;;;;;54.80;4.63;;;;;;;;;;5096398;28;20499;-54
2023/02/06 08:48:58;;;;;;;22.93;8.80;;;;;;;;;;5094817;28;20016;-58
2023/02/06 08:51:27;;;;;;;15.03;3.83;;;;;;;;;;5094940;28;20035;-61
2023/02/06 08:54:05;;;;;;;10.30;2.60;;;;;;;;;;5094547;28;20027;-58
2023/02/06 08:56:32;;;;;;;17.00;2.43;;;;;;;;;;5094403;28;20028;-55
2023/02/06 08:58:58;;;;;;;11.60;1.90;;;;;;;;;;5093196;28;20020;-58
2023/02/06 09:01:24;;;;;;;11.00;2.03;;;;;;;;;;5093412;28;20490;-55
2023/02/06 09:03:53;;;;;;;7.83;1.57;;;;;;;;;;5095142;28;20410;-58
2023/02/06 09:06:18;;;;;;;10.47;1.80;;;;;;;;;;5094304;28;20011;-56
2023/02/06 09:08:44;;;;;;;9.20;1.53;;;;;;;;;;5093817;28;20127;-57
2023/02/06 09:11:17;;;;;;;10.13;3.80;;;;;;;;;;5093614;28;20027;-58
2023/02/06 09:13:43;;;;;;;15.80;4.83;;;;;;;;;;5094664;28;20362;-56
2023/02/06 09:16:09;;;;;;;11.73;3.50;;;;;;;;;;5094872;28;20016;-57
2023/02/06 09:18:35;;;;;;;10.90;2.57;;;;;;;;;;5094151;28;20439;-56
2023/02/06 09:21:04;;;;;;;8.90;2.37;;;;;;;;;;5093854;28;20020;-57
2023/02/06 09:23:30;;;;;;;12.83;2.13;;;;;;;;;;5094595;28;20043;-56
2023/02/06 09:25:57;;;;;;;9.30;2.30;;;;;;;;;;5097003;28;20032;-60
2023/02/06 09:28:22;;;;;;;19.97;3.60;;;;;;;;;;5095497;28;20050;-61
2023/02/06 09:30:47;;;;;;;24.80;5.10;;;;;;;;;;5095397;28;20020;-62
2023/02/06 09:33:13;;;;;;;11.90;2.20;;;;;;;;;;5093784;28;20047;-62
2023/02/06 09:35:38;;;;;;;13.20;3.03;;;;;;;;;;5093956;28;20065;-61
2023/02/06 09:38:04;;;;;;;13.67;2.50;;;;;;;;;;5096168;28;20028;-60
2023/02/06 09:40:31;;;;;;;18.00;3.00;;;;;;;;;;5096348;28;20027;-61
2023/02/06 09:42:57;;;;;;;14.43;2.40;;;;;;;;;;5094417;28;20357;-64
2023/02/06 09:45:24;;;;;;;15.32;2.00;;;;;;;;;;5094541;28;20078;-66
2023/02/06 09:47:56;;;;;;;25.48;8.27;;;;;;;;;;5093225;28;20099;-58
2023/02/06 09:50:26;;;;;;;14.30;3.03;;;;;;;;;;5092565;28;20042;-59
2023/02/06 09:53:10;;;;;;;15.00;2.35;;;;;;;;;;5093863;28;20077;-59
2023/02/06 09:55:43;;;;;;;16.02;2.15;;;;;;;;;;5092370;28;20020;-57
2023/02/06 09:58:18;;;;;;;15.77;3.78;;;;;;;;;;5092052;28;20032;-58
2023/02/06 10:00:49;;;;;;;27.20;10.77;;;;;;;;;;5091847;28;20059;-59
2023/02/06 10:03:30;;;;;;;18.55;5.57;;;;;;;;;;5091064;28;20368;-59
2023/02/06 10:05:55;;;;;;;19.02;4.60;;;;;;;;;;5091500;28;20489;-59
2023/02/06 10:08:23;;;;;;;11.68;2.58;;;;;;;;;;5092573;28;20047;-59
2023/02/06 10:10:59;;;;;;;13.25;4.18;;;;;;;;;;5092491;28;20073;-59
2023/02/06 10:13:31;;;;;;;9.82;2.70;;;;;;;;;;5091375;28;20020;-58
2023/02/06 10:16:04;;;;;;;12.77;2.60;;;;;;;;;;5091560;28;20047;-57
2023/02/06 10:18:33;;;;;;;12.50;2.60;;;;;;;;;;5091193;28;20024;-58
2023/02/06 10:21:03;;;;;;;7.97;2.58;;;;;;;;;;5091121;28;20115;-57
2023/02/06 10:23:45;;;;;;;9.68;2.10;;;;;;;;;;5091401;28;20031;-58
2023/02/06 10:26:21;;;;;;;12.65;2.75;;;;;;;;;;5090920;28;20062;-57
2023/02/06 10:28:51;;;;;;;14.55;3.67;;;;;;;;;;5092537;28;20031;-56
2023/02/06 10:31:22;;;;;;;13.43;2.45;;;;;;;;;;5090456;28;20024;-57
2023/02/06 10:34:03;;;;;;;13.95;5.38;;;;;;;;;;5095092;28;20020;-57
2023/02/06 10:36:47;;;;;;;10.40;2.50;;;;;;;;;;5098896;28;20469;-56
2023/02/06 10:39:28;;;;;;;9.02;1.92;;;;;;;;;;5097676;28;20016;-58
2023/02/06 10:42:09;;;;;;;7.35;1.70;;;;;;;;;;5097556;28;20077;-59
2023/02/06 10:44:39;;;;;;;8.80;2.42;;;;;;;;;;5098613;28;20073;-58
2023/02/06 10:47:13;;;;;;;8.75;2.15;;;;;;;;;;5097225;28;20097;-57
2023/02/06 10:49:43;;;;;;;6.10;1.67;;;;;;;;;;5097399;28;20030;-59
2023/02/06 10:52:17;;;;;;;9.75;2.72;;;;;;;;;;5098962;28;20224;-59
2023/02/06 10:54:48;;;;;;;12.80;2.65;;;;;;;;;;5097568;28;20024;-57
2023/02/06 10:57:16;;;;;;;10.27;2.40;;;;;;;;;;5097275;28;20028;-60
2023/02/06 10:59:52;;;;;;;9.98;2.47;;;;;;;;;;5097521;28;20083;-58
2023/02/06 11:02:23;;;;;;;5.40;2.20;;;;;;;;;;5100070;28;20020;-59
2023/02/06 11:04:59;;;;;;;36.42;4.00;;;;;;;;;;5097992;28;20035;-60
2023/02/06 11:07:34;;;;;;;6.65;2.25;;;;;;;;;;5096737;28;20055;-60
2023/02/06 11:10:00;;;;;;;15.10;4.50;;;;;;;;;;5096926;28;20035;-58
2023/02/06 11:12:31;;;;;;;11.55;3.03;;;;;;;;;;5097276;28;20013;-59
2023/02/06 11:14:59;;;;;;;16.60;4.95;;;;;;;;;;5098246;28;20524;-59
2023/02/06 11:17:27;;;;;;;11.18;4.72;;;;;;;;;;5097189;28;20024;-59
2023/02/06 11:19:55;;;;;;;9.30;2.10;;;;;;;;;;5098664;28;20020;-59
2023/02/06 11:22:27;;;;;;;9.98;2.00;;;;;;;;;;5098983;28;20026;-60
2023/02/06 11:25:01;;;;;;;5.35;1.70;;;;;;;;;;5098622;28;20055;-59
2023/02/06 11:27:27;;;;;;;7.88;1.80;;;;;;;;;;5097299;28;20026;-58
2023/02/06 11:29:52;;;;;;;8.73;1.55;;;;;;;;;;5098813;28;20016;-59
2023/02/06 11:32:40;;;;;;;11.60;3.05;;;;;;;;;;5098770;28;20170;-60
2023/02/06 11:35:24;;;;;;;16.73;2.83;;;;;;;;;;5097260;28;20031;-66
2023/02/06 11:37:54;;;;;;;7.32;1.33;;;;;;;;;;5098706;28;20027;-59
2023/02/06 11:40:21;;;;;;;10.77;2.45;;;;;;;;;;5097343;28;20392;-58
2023/02/06 11:42:48;;;;;;;11.02;2.13;;;;;;;;;;5098154;28;20093;-62
2023/02/06 11:45:27;;;;;;;6.60;1.98;;;;;;;;;;5096104;28;20089;-58
2023/02/06 11:47:52;;;;;;;8.45;1.90;;;;;;;;;;5095672;28;20016;-56
2023/02/06 11:50:23;;;;;;;8.52;1.17;;;;;;;;;;5095598;28;20031;-57
2023/02/06 11:52:51;;;;;;;8.50;1.40;;;;;;;;;;5096836;28;20028;-59
2023/02/06 11:55:22;;;;;;;11.65;1.95;;;;;;;;;;5095968;28;20080;-60
2023/02/06 11:58:07;;;;;;;7.82;1.80;;;;;;;;;;5094866;28;20023;-55
2023/02/06 12:00:34;;;;;;;9.25;2.08;;;;;;;;;;5079280;28;20459;-59
2023/02/06 12:03:01;;;;;;;8.85;1.52;;;;;;;;;;5095069;28;20372;-59
2023/02/06 12:05:29;;;;;;;9.82;1.42;;;;;;;;;;5094885;28;20449;-58
2023/02/06 12:08:06;;;;;;;14.98;2.50;;;;;;;;;;5095561;28;20052;-58
2023/02/06 12:10:33;;;;;;;9.32;2.08;;;;;;;;;;5095067;28;20020;-58
2023/02/06 12:13:25;;;;;;;9.00;1.65;;;;;;;;;;5094441;28;20082;-60
2023/02/06 12:15:52;;;;;;;6.97;1.40;;;;;;;;;;5090199;28;20032;-58
2023/02/06 12:18:20;;;;;;;11.82;1.90;;;;;;;;;;5094140;28;20153;-59
2023/02/06 12:20:54;;;;;;;9.00;1.58;;;;;;;;;;5094947;28;20103;-57
2023/02/06 12:23:22;;;;;;;8.23;1.65;;;;;;;;;;5094574;28;20024;-59
2023/02/06 12:25:50;;;;;;;8.57;1.38;;;;;;;;;;5095180;28;20073;-59
2023/02/06 12:28:22;;;;;;;3.97;1.23;;;;;;;;;;5093819;28;20019;-59
2023/02/06 12:30:53;;;;;;;7.10;1.65;;;;;;;;;;5095193;28;20550;-60
2023/02/06 12:33:26;;;;;;;9.98;1.90;;;;;;;;;;5094410;28;20393;-63
2023/02/06 12:35:58;;;;;;;6.38;1.92;;;;;;;;;;5094955;28;20027;-56
2023/02/06 12:38:34;;;;;;;12.02;2.50;;;;;;;;;;5093067;28;20023;-58
2023/02/06 12:41:18;;;;;;;11.15;1.45;;;;;;;;;;5092687;28;20063;-59
2023/02/06 12:43:47;;;;;;;4.55;1.70;;;;;;;;;;5092748;28;20459;-58
2023/02/06 12:46:17;;;;;;;8.30;2.60;;;;;;;;;;5094880;28;20032;-59
2023/02/06 12:48:46;;;;;;;3.33;1.35;;;;;;;;;;5093293;28;20012;-59
2023/02/06 12:51:18;;;;;;;14.73;2.08;;;;;;;;;;5094302;28;20142;-58
2023/02/06 12:53:52;;;;;;;8.48;1.70;;;;;;;;;;5093087;28;20027;-59
2023/02/06 12:56:19;;;;;;;5.30;1.33;;;;;;;;;;5093858;28;20057;-58
2023/02/06 12:58:52;;;;;;;8.30;2.30;;;;;;;;;;5092762;28;20093;-58
2023/02/06 13:01:23;;;;;;;13.02;3.45;;;;;;;;;;5093120;28;20114;-57
2023/02/06 13:03:51;;;;;;;18.50;3.08;;;;;;;;;;5092970;28;20078;-58
2023/02/06 13:06:19;;;;;;;11.30;2.88;;;;;;;;;;5094425;28;20097;-57
2023/02/06 13:08:54;;;;;;;13.15;2.35;;;;;;;;;;5092795;28;20048;-58
2023/02/06 13:11:20;;;;;;;10.55;2.50;;;;;;;;;;5094732;28;20107;-60
2023/02/06 13:13:48;;;;;;;10.73;3.45;;;;;;;;;;5094819;28;20058;-59
2023/02/06 13:16:14;;;;;;;9.10;1.83;;;;;;;;;;5094770;28;20495;-58
2023/02/06 13:18:41;;;;;;;7.28;1.17;;;;;;;;;;5093542;28;20012;-61
2023/02/06 13:21:12;;;;;;;14.00;2.45;;;;;;;;;;5093540;28;20016;-59
2023/02/06 13:23:47;;;;;;;12.23;2.70;;;;;;;;;;5095080;28;20024;-59
2023/02/06 13:26:14;;;;;;;7.53;2.05;;;;;;;;;;5092976;28;20028;-60
2023/02/06 13:28:40;;;;;;;18.10;2.30;;;;;;;;;;5094259;28;20047;-58
2023/02/06 13:31:19;;;;;;;5.70;1.42;;;;;;;;;;5092914;28;20107;-58
2023/02/06 13:33:50;;;;;;;8.00;1.38;;;;;;;;;;5094474;28;20016;-60
2023/02/06 13:36:17;;;;;;;10.65;1.98;;;;;;;;;;5094661;28;20016;-64
2023/02/06 13:38:43;;;;;;;12.57;2.20;;;;;;;;;;5094031;28;20016;-58
2023/02/06 13:41:13;;;;;;;5.85;1.73;;;;;;;;;;5094143;28;20027;-60
2023/02/06 13:43:40;;;;;;;6.88;1.67;;;;;;;;;;5092509;28;20451;-58
2023/02/06 13:46:06;;;;;;;8.82;1.40;;;;;;;;;;5093390;28;20626;-59
2023/02/06 13:48:44;;;;;;;6.20;1.65;;;;;;;;;;5092715;28;20012;-59
2023/02/06 13:51:21;;;;;;;13.10;2.00;;;;;;;;;;5093145;28;20020;-60
2023/02/06 13:54:01;;;;;;;10.75;1.10;;;;;;;;;;5094001;28;20026;-57
2023/02/06 13:56:42;;;;;;;5.93;1.42;;;;;;;;;;5092333;28;20046;-58
2023/02/06 13:59:16;;;;;;;8.70;1.35;;;;;;;;;;5092302;28;20035;-57
2023/02/06 14:01:42;;;;;;;8.48;1.58;;;;;;;;;;5093651;28;20027;-57
2023/02/06 14:04:09;;;;;;;9.63;1.52;;;;;;;;;;5092313;28;20032;-59
2023/02/06 14:06:40;;;;;;;8.38;1.77;;;;;;;;;;5092782;28;20107;-59
2023/02/06 14:09:11;;;;;;;8.55;1.65;;;;;;;;;;5074587;28;20020;-60
2023/02/06 14:14:32;;;;;;;5.85;1.05;;;;;;;;;;5092234;28;20093;-59
2023/02/06 14:17:17;;;;;;;8.10;2.00;;;;;;;;;;5092238;28;20052;-59
2023/02/06 14:19:48;;;;;;;6.65;1.77;;;;;;;;;;5091864;28;20036;-56
2023/02/06 14:22:29;;;;;;;5.40;1.52;;;;;;;;;;5092524;28;20024;-58
2023/02/06 14:25:18;;;;;;;9.30;2.33;;;;;;;;;;5093515;28;20173;-59
2023/02/06 14:27:47;;;;;;;9.63;1.23;;;;;;;;;;5091344;28;20024;-59
2023/02/06 14:30:18;;;;;;;5.68;1.30;;;;;;;;;;5091281;28;20020;-59
2023/02/06 14:32:55;;;;;;;9.70;1.40;;;;;;;;;;5092362;28;20020;-59
2023/02/06 14:35:26;;;;;;;8.23;2.03;;;;;;;;;;5092133;28;20029;-59
2023/02/06 14:37:58;;;;;;;7.50;1.45;;;;;;;;;;5092128;28;20028;-59
2023/02/06 14:40:25;;;;;;;10.55;1.23;;;;;;;;;;5092417;28;20031;-58
2023/02/06 14:42:54;;;;;;;5.55;1.20;;;;;;;;;;5092964;28;20473;-58
2023/02/06 14:45:28;;;;;;;6.22;1.40;;;;;;;;;;5092344;28;20032;-57
2023/02/06 14:47:55;;;;;;;6.97;1.55;;;;;;;;;;5092212;28;20028;-58
2023/02/06 14:50:23;;;;;;;10.02;1.80;;;;;;;;;;5091839;28;20099;-57